Time;durP1;ratioP1;P1;durP2;ratioP2;P2;SDS_P1;SDS_P2;PMS_P1;PMS_P2;Temp;Humidity;BMP_temperature;BMP_pressure;BME280_temperature;BME280_humidity;BME280_pressure;Samples;Min_cycle;Max_cycle;Signal;HPM_P1;HPM_P2
2022/09/04 00:01:11;;;;;;;4.50;2.40;;;;;;;;;;5097002;28;20384;-80
2022/09/04 00:03:54;;;;;;;8.93;2.20;;;;;;;;;;5079712;28;20023;-80
2022/09/04 00:06:24;;;;;;;5.13;2.20;;;;;;;;;;5096667;28;20020;-81
2022/09/04 00:09:15;;;;;;;6.43;2.30;;;;;;;;;;5096681;28;20387;-80
2022/09/04 00:11:43;;;;;;;3.97;2.03;;;;;;;;;;5079500;28;20024;-79
2022/09/04 00:14:21;;;;;;;4.00;2.22;;;;;;;;;;5096303;28;20391;-79
2022/09/04 00:17:02;;;;;;;3.85;2.28;;;;;;;;;;5096337;28;20036;-78
2022/09/04 00:19:38;;;;;;;5.70;2.17;;;;;;;;;;5097203;28;20483;-79
2022/09/04 00:22:22;;;;;;;3.75;2.63;;;;;;;;;;5096441;28;20122;-79
2022/09/04 00:24:57;;;;;;;4.10;2.85;;;;;;;;;;5096808;28;20392;-79
2022/09/04 00:27:24;;;;;;;4.15;2.30;;;;;;;;;;5096267;28;20039;-79
2022/09/04 00:30:03;;;;;;;4.65;2.58;;;;;;;;;;5079494;28;20211;-79
2022/09/04 00:32:53;;;;;;;7.18;2.33;;;;;;;;;;5096209;28;20043;-79
2022/09/04 00:35:42;;;;;;;4.28;2.20;;;;;;;;;;5096632;28;20051;-79
2022/09/04 00:38:29;;;;;;;3.50;2.15;;;;;;;;;;5096234;28;20101;-79
2022/09/04 00:41:23;;;;;;;3.28;2.17;;;;;;;;;;5095964;28;20122;-79
2022/09/04 00:44:00;;;;;;;7.97;2.80;;;;;;;;;;5096044;28;20042;-79
2022/09/04 00:46:44;;;;;;;4.78;2.40;;;;;;;;;;5096363;28;20019;-79
2022/09/04 00:49:28;;;;;;;4.03;2.20;;;;;;;;;;5114494;28;20213;-79
2022/09/04 00:52:16;;;;;;;3.72;2.17;;;;;;;;;;5096313;28;20027;-79
2022/09/04 00:54:53;;;;;;;4.43;2.40;;;;;;;;;;5095891;28;20493;-79
2022/09/04 00:57:28;;;;;;;4.07;2.67;;;;;;;;;;5096001;28;20364;-79
2022/09/04 01:00:16;;;;;;;4.40;2.30;;;;;;;;;;5114046;28;20031;-79
2022/09/04 01:02:42;;;;;;;3.30;2.50;;;;;;;;;;5078718;28;20168;-79
2022/09/04 01:05:39;;;;;;;3.20;2.22;;;;;;;;;;5096454;28;20074;-79
2022/09/04 01:08:16;;;;;;;2.97;2.35;;;;;;;;;;5095614;28;20399;-78
2022/09/04 01:11:10;;;;;;;3.88;2.78;;;;;;;;;;5114157;28;20062;-79
2022/09/04 01:14:08;;;;;;;4.38;2.33;;;;;;;;;;5113604;28;20073;-79
2022/09/04 01:17:24;;;;;;;3.25;2.75;;;;;;;;;;5073118;28;20529;-78
2022/09/04 01:20:35;;;;;;;2.70;2.10;;;;;;;;;;5044765;28;20056;-79
2022/09/04 01:23:13;;;;;;;3.67;2.40;;;;;;;;;;5073197;28;20161;-79
2022/09/04 01:25:59;;;;;;;3.70;2.33;;;;;;;;;;5093237;28;20110;-79
2022/09/04 01:28:46;;;;;;;2.78;2.40;;;;;;;;;;5093242;28;20425;-79
2022/09/04 01:31:37;;;;;;;4.60;2.60;;;;;;;;;;5058477;28;20032;-79
2022/09/04 01:34:37;;;;;;;3.30;2.50;;;;;;;;;;5071949;28;20040;-79
2022/09/04 01:37:13;;;;;;;3.90;2.50;;;;;;;;;;5093406;28;20032;-79
2022/09/04 01:39:38;;;;;;;3.28;2.38;;;;;;;;;;5075066;28;20073;-79
2022/09/04 01:42:21;;;;;;;2.20;2.00;;;;;;;;;;5093085;28;20028;-79
2022/09/04 01:44:47;;;;;;;2.72;2.33;;;;;;;;;;5075163;28;20020;-79
2022/09/04 01:47:20;;;;;;;2.67;2.40;;;;;;;;;;5093107;28;20029;-79
2022/09/04 01:50:05;;;;;;;3.03;2.35;;;;;;;;;;5093359;28;20078;-78
2022/09/04 01:52:53;;;;;;;3.67;2.30;;;;;;;;;;5058225;28;20027;-78
2022/09/04 01:55:36;;;;;;;3.22;2.28;;;;;;;;;;5058280;28;20028;-78
2022/09/04 01:58:34;;;;;;;3.45;2.25;;;;;;;;;;5093183;28;20027;-78
2022/09/04 02:01:10;;;;;;;2.63;2.40;;;;;;;;;;5058187;28;20035;-79
2022/09/04 02:04:01;;;;;;;4.22;2.60;;;;;;;;;;5075181;28;20023;-78
2022/09/04 02:06:37;;;;;;;2.28;2.10;;;;;;;;;;5074760;28;20395;-78
2022/09/04 02:09:40;;;;;;;3.47;2.30;;;;;;;;;;5058012;28;20024;-79
2022/09/04 02:12:34;;;;;;;2.67;2.10;;;;;;;;;;5074734;28;20115;-79
2022/09/04 02:15:12;;;;;;;3.65;2.47;;;;;;;;;;5072584;28;20044;-78
2022/09/04 02:17:43;;;;;;;7.38;2.30;;;;;;;;;;5096185;28;20498;-79
2022/09/04 02:20:12;;;;;;;3.72;2.42;;;;;;;;;;5113387;28;20051;-79
2022/09/04 02:22:38;;;;;;;2.78;2.40;;;;;;;;;;5095329;28;20430;-79
2022/09/04 02:25:22;;;;;;;3.97;2.42;;;;;;;;;;5113347;28;20019;-79
2022/09/04 02:28:08;;;;;;;8.50;2.38;;;;;;;;;;5115164;28;20023;-79
2022/09/04 02:31:01;;;;;;;3.47;2.40;;;;;;;;;;5098699;28;20026;-79
2022/09/04 02:33:47;;;;;;;3.35;2.85;;;;;;;;;;5067867;28;20456;-79
2022/09/04 02:36:17;;;;;;;4.60;2.70;;;;;;;;;;5081584;28;20027;-79
2022/09/04 02:38:42;;;;;;;5.55;2.40;;;;;;;;;;5081544;28;20042;-78
2022/09/04 02:41:18;;;;;;;3.07;2.40;;;;;;;;;;5098486;28;20023;-78
2022/09/04 02:44:00;;;;;;;2.67;2.40;;;;;;;;;;5116917;28;20327;-79
2022/09/04 02:46:25;;;;;;;3.13;2.42;;;;;;;;;;5081587;28;20054;-79
2022/09/04 02:48:57;;;;;;;4.60;2.40;;;;;;;;;;5116651;28;20023;-79
2022/09/04 02:51:51;;;;;;;3.13;2.50;;;;;;;;;;5116600;28;20066;-78
2022/09/04 02:54:26;;;;;;;5.45;2.53;;;;;;;;;;5081482;28;20047;-78
2022/09/04 02:56:58;;;;;;;3.22;2.80;;;;;;;;;;5098163;28;20114;-78
2022/09/04 02:59:40;;;;;;;4.03;2.55;;;;;;;;;;5116361;28;20020;-79
2022/09/04 03:02:17;;;;;;;4.38;2.50;;;;;;;;;;5098264;28;20037;-79
2022/09/04 03:04:48;;;;;;;2.63;2.40;;;;;;;;;;5098726;28;20481;-79
2022/09/04 03:07:35;;;;;;;3.28;2.60;;;;;;;;;;5081716;28;20027;-78
2022/09/04 03:10:18;;;;;;;2.50;2.30;;;;;;;;;;5081030;28;20106;-78
2022/09/04 03:13:03;;;;;;;2.78;2.53;;;;;;;;;;5098266;28;20027;-79
2022/09/04 03:15:38;;;;;;;12.50;2.65;;;;;;;;;;5081079;28;20023;-79
2022/09/04 03:18:22;;;;;;;3.80;2.33;;;;;;;;;;5097589;28;20048;-79
2022/09/04 03:20:59;;;;;;;3.47;2.70;;;;;;;;;;5115988;28;20028;-79
2022/09/04 03:23:46;;;;;;;3.10;2.47;;;;;;;;;;5098339;28;20031;-79
2022/09/04 03:26:20;;;;;;;5.43;2.78;;;;;;;;;;5097532;28;20035;-79
2022/09/04 03:29:13;;;;;;;5.05;2.78;;;;;;;;;;5080732;28;20352;-79
2022/09/04 03:31:41;;;;;;;4.53;2.60;;;;;;;;;;5116072;28;20379;-78
2022/09/04 03:34:15;;;;;;;4.35;2.60;;;;;;;;;;5097414;28;20468;-78
2022/09/04 03:37:11;;;;;;;3.50;2.35;;;;;;;;;;5096964;28;20027;-78
2022/09/04 03:40:02;;;;;;;3.65;2.30;;;;;;;;;;5104057;28;20069;-78
2022/09/04 03:42:34;;;;;;;2.78;2.47;;;;;;;;;;5080577;28;20039;-78
2022/09/04 03:45:34;;;;;;;4.15;2.60;;;;;;;;;;5115705;28;20039;-79
2022/09/04 03:48:18;;;;;;;4.10;2.47;;;;;;;;;;5080613;28;20493;-80
2022/09/04 03:50:53;;;;;;;;;;;;;;;;;;5080640;28;20114;-79
2022/09/04 03:53:41;;;;;;;5.68;2.65;;;;;;;;;;5097090;28;20321;-79
2022/09/04 03:56:22;;;;;;;3.50;2.42;;;;;;;;;;5079871;28;20031;-79
2022/09/04 03:59:01;;;;;;;4.22;2.50;;;;;;;;;;5115320;28;20099;-79
2022/09/04 04:01:33;;;;;;;2.97;2.30;;;;;;;;;;5096940;28;20039;-78
2022/09/04 04:04:34;;;;;;;3.28;2.42;;;;;;;;;;5115439;28;20047;-78
2022/09/04 04:07:07;;;;;;;2.92;2.67;;;;;;;;;;5080537;28;20019;-79
2022/09/04 04:09:42;;;;;;;2.90;2.60;;;;;;;;;;5096834;28;20042;-78
2022/09/04 04:12:26;;;;;;;2.53;2.30;;;;;;;;;;5115251;28;20023;-79
2022/09/04 04:15:14;;;;;;;3.85;2.40;;;;;;;;;;5096510;28;20050;-78
2022/09/04 04:17:54;;;;;;;2.85;2.50;;;;;;;;;;5114788;28;20048;-78
2022/09/04 04:20:38;;;;;;;3.40;2.50;;;;;;;;;;5096450;28;20027;-79
2022/09/04 04:23:22;;;;;;;;;;;;;;;;;;5097030;28;20042;-79
2022/09/04 04:26:25;;;;;;;2.75;2.42;;;;;;;;;;5096580;28;19908;-79
2022/09/04 04:29:05;;;;;;;3.30;2.72;;;;;;;;;;5096355;28;20491;-79
2022/09/04 04:31:39;;;;;;;3.05;2.75;;;;;;;;;;5079165;28;20045;-80
2022/09/04 04:34:10;;;;;;;5.18;2.60;;;;;;;;;;5078869;28;20088;-79
2022/09/04 04:36:36;;;;;;;3.10;2.50;;;;;;;;;;5095731;28;20032;-79
2022/09/04 04:39:26;;;;;;;3.17;2.88;;;;;;;;;;5095678;28;20053;-79
2022/09/04 04:42:10;;;;;;;2.67;2.47;;;;;;;;;;5113526;28;20470;-79
2022/09/04 04:48:06;;;;;;;4.03;2.40;;;;;;;;;;5113709;28;20074;-80
2022/09/04 04:51:02;;;;;;;7.53;3.57;;;;;;;;;;5113033;28;20442;-79
2022/09/04 04:53:49;;;;;;;3.35;2.40;;;;;;;;;;5078377;28;20127;-79
2022/09/04 04:56:25;;;;;;;2.60;2.40;;;;;;;;;;5095115;28;20073;-78
2022/09/04 04:59:00;;;;;;;2.90;2.30;;;;;;;;;;5095183;28;20027;-78
2022/09/04 05:01:31;;;;;;;3.25;2.42;;;;;;;;;;5078137;28;20418;-79
2022/09/04 05:04:19;;;;;;;2.88;2.47;;;;;;;;;;5094871;28;20049;-79
2022/09/04 05:06:59;;;;;;;3.05;2.30;;;;;;;;;;5095274;28;20020;-79
2022/09/04 05:09:35;;;;;;;2.88;2.60;;;;;;;;;;5095100;28;20094;-79
2022/09/04 05:12:34;;;;;;;3.75;2.80;;;;;;;;;;5095155;28;20096;-79
2022/09/04 05:15:34;;;;;;;3.08;2.42;;;;;;;;;;5094743;28;20058;-79
2022/09/04 05:18:20;;;;;;;3.83;2.65;;;;;;;;;;5094687;28;20105;-79
2022/09/04 05:20:55;;;;;;;2.75;2.55;;;;;;;;;;5077760;28;20037;-79
2022/09/04 05:23:43;;;;;;;3.78;2.28;;;;;;;;;;5077795;28;20475;-79
2022/09/04 05:26:31;;;;;;;3.75;2.88;;;;;;;;;;5077998;28;20060;-79
2022/09/04 05:29:18;;;;;;;3.47;2.60;;;;;;;;;;5112886;28;20347;-79
2022/09/04 05:31:58;;;;;;;4.03;2.97;;;;;;;;;;5112869;28;20034;-78
2022/09/04 05:35:01;;;;;;;3.08;2.70;;;;;;;;;;5094435;28;20101;-78
2022/09/04 05:37:32;;;;;;;2.90;2.38;;;;;;;;;;5094515;28;20016;-78
2022/09/04 05:40:16;;;;;;;4.70;2.50;;;;;;;;;;5094743;28;20030;-78
2022/09/04 05:42:44;;;;;;;;;;;;;;;;;;5094787;28;20060;-78
2022/09/04 05:45:37;;;;;;;4.00;2.60;;;;;;;;;;5077754;28;20024;-80
2022/09/04 05:48:21;;;;;;;3.80;2.13;;;;;;;;;;5094636;28;20471;-78
2022/09/04 05:50:50;;;;;;;6.72;2.78;;;;;;;;;;5077998;28;20038;-78
2022/09/04 05:53:25;;;;;;;3.33;2.80;;;;;;;;;;5095157;28;20532;-78
2022/09/04 05:56:18;;;;;;;6.68;3.15;;;;;;;;;;5095534;28;20094;-79
2022/09/04 05:58:57;;;;;;;4.13;3.33;;;;;;;;;;5094812;28;20030;-77
2022/09/04 06:01:29;;;;;;;2.85;2.58;;;;;;;;;;5079664;28;20441;-79
2022/09/04 06:04:28;;;;;;;4.20;2.90;;;;;;;;;;5117364;28;20023;-79
2022/09/04 06:07:05;;;;;;;4.47;2.65;;;;;;;;;;5098562;28;20061;-79
2022/09/04 06:09:49;;;;;;;6.05;2.97;;;;;;;;;;5098586;28;20027;-78
2022/09/04 06:12:56;;;;;;;3.30;2.50;;;;;;;;;;5117848;28;20467;-79
2022/09/04 06:15:53;;;;;;;3.70;2.42;;;;;;;;;;5098724;28;20035;-79
2022/09/04 06:18:45;;;;;;;2.35;2.15;;;;;;;;;;5060943;28;20051;-80
2022/09/04 06:21:19;;;;;;;3.22;2.20;;;;;;;;;;5098421;28;20027;-78
2022/09/04 06:23:46;;;;;;;7.57;2.20;;;;;;;;;;5118336;28;20491;-80
2022/09/04 06:26:35;;;;;;;2.70;1.95;;;;;;;;;;5118011;28;20047;-78
2022/09/04 06:29:10;;;;;;;3.25;2.35;;;;;;;;;;5069096;28;20089;-78
2022/09/04 06:31:52;;;;;;;5.85;2.03;;;;;;;;;;5117625;28;20137;-80
2022/09/04 06:34:34;;;;;;;3.47;2.60;;;;;;;;;;5099074;28;20023;-79
2022/09/04 06:37:12;;;;;;;5.43;2.58;;;;;;;;;;5098815;28;20076;-79
2022/09/04 06:40:07;;;;;;;5.68;2.60;;;;;;;;;;5117554;28;20030;-78
2022/09/04 06:42:48;;;;;;;5.70;2.75;;;;;;;;;;5117096;28;20023;-78
2022/09/04 06:45:48;;;;;;;4.88;2.60;;;;;;;;;;5097896;28;20019;-79
2022/09/04 06:48:22;;;;;;;3.88;2.63;;;;;;;;;;5102533;28;20042;-80
2022/09/04 06:51:05;;;;;;;3.45;2.60;;;;;;;;;;5117375;28;20026;-80
2022/09/04 06:53:45;;;;;;;7.78;3.13;;;;;;;;;;5117672;28;20115;-79
2022/09/04 06:56:37;;;;;;;6.10;3.30;;;;;;;;;;5099441;28;20039;-79
2022/09/04 06:59:29;;;;;;;6.20;3.03;;;;;;;;;;5098890;28;20053;-78
2022/09/04 07:02:09;;;;;;;4.88;2.70;;;;;;;;;;5081142;28;20118;-81
2022/09/04 07:04:57;;;;;;;7.65;3.40;;;;;;;;;;5116391;28;20035;-80
2022/09/04 07:07:31;;;;;;;6.65;3.30;;;;;;;;;;5116717;28;20406;-80
2022/09/04 07:10:02;;;;;;;3.53;3.03;;;;;;;;;;5097878;28;20024;-80
2022/09/04 07:13:02;;;;;;;5.90;3.10;;;;;;;;;;5079339;28;20116;-80
2022/09/04 07:15:30;;;;;;;3.50;2.83;;;;;;;;;;5097963;28;20038;-80
2022/09/04 07:18:05;;;;;;;3.97;2.92;;;;;;;;;;5097625;28;20055;-80
2022/09/04 07:20:33;;;;;;;3.90;3.08;;;;;;;;;;5097539;28;20063;-78
2022/09/04 07:23:19;;;;;;;6.82;3.60;;;;;;;;;;5080271;28;20112;-79
2022/09/04 07:25:55;;;;;;;9.55;2.85;;;;;;;;;;5098512;28;20395;-80
2022/09/04 07:28:35;;;;;;;4.18;3.05;;;;;;;;;;5116574;28;20398;-80
2022/09/04 07:31:11;;;;;;;5.22;3.00;;;;;;;;;;5097186;28;20051;-80
2022/09/04 07:33:50;;;;;;;4.18;2.88;;;;;;;;;;5080971;28;20331;-80
2022/09/04 07:36:31;;;;;;;3.17;2.88;;;;;;;;;;5116369;28;20489;-79
2022/09/04 07:39:03;;;;;;;4.60;2.90;;;;;;;;;;5098194;28;20027;-78
2022/09/04 07:42:06;;;;;;;6.43;3.33;;;;;;;;;;5116068;28;20019;-78
2022/09/04 07:44:53;;;;;;;8.88;3.35;;;;;;;;;;5115350;28;20432;-79
2022/09/04 07:47:33;;;;;;;6.43;3.17;;;;;;;;;;5080562;28;20053;-78
2022/09/04 07:50:09;;;;;;;10.80;3.25;;;;;;;;;;5115696;28;20102;-77
2022/09/04 07:52:44;;;;;;;8.05;3.47;;;;;;;;;;5115665;28;20464;-77
2022/09/04 07:55:18;;;;;;;10.23;3.15;;;;;;;;;;5096112;28;20038;-77
2022/09/04 07:57:46;;;;;;;13.43;3.10;;;;;;;;;;5115210;28;20065;-77
2022/09/04 08:00:17;;;;;;;18.02;3.72;;;;;;;;;;5096576;28;20032;-76
2022/09/04 08:02:48;;;;;;;8.85;3.35;;;;;;;;;;5080766;28;20034;-77
2022/09/04 08:05:25;;;;;;;10.48;3.13;;;;;;;;;;5096810;28;20036;-77
2022/09/04 08:08:20;;;;;;;7.45;3.22;;;;;;;;;;5096578;28;20024;-77
2022/09/04 08:10:59;;;;;;;5.32;3.22;;;;;;;;;;5114628;28;20027;-77
2022/09/04 08:13:40;;;;;;;11.68;3.65;;;;;;;;;;5096283;28;20024;-77
2022/09/04 08:16:19;;;;;;;5.20;3.10;;;;;;;;;;5114220;28;20145;-78
2022/09/04 08:19:39;;;;;;;6.53;3.00;;;;;;;;;;5095970;28;20048;-78
2022/09/04 08:22:05;;;;;;;8.73;4.15;;;;;;;;;;5073006;28;20066;-78
2022/09/04 08:24:57;;;;;;;7.63;3.15;;;;;;;;;;5078915;28;20039;-79
2022/09/04 08:27:34;;;;;;;5.82;3.40;;;;;;;;;;5085457;28;20374;-78
2022/09/04 08:30:03;;;;;;;10.02;3.10;;;;;;;;;;5078987;28;20387;-79
2022/09/04 08:33:05;;;;;;;10.15;3.38;;;;;;;;;;5114519;28;20043;-79
2022/09/04 08:35:52;;;;;;;8.77;2.92;;;;;;;;;;5115536;28;20058;-81
2022/09/04 08:38:30;;;;;;;10.05;3.42;;;;;;;;;;5097286;28;20341;-79
2022/09/04 08:40:56;;;;;;;4.25;2.80;;;;;;;;;;5097267;28;20049;-80
2022/09/04 08:43:43;;;;;;;6.45;3.22;;;;;;;;;;5114507;28;20405;-78
2022/09/04 08:46:38;;;;;;;15.25;3.42;;;;;;;;;;5113780;28;20386;-78
2022/09/04 08:49:33;;;;;;;8.70;3.38;;;;;;;;;;5023490;28;20152;-79
2022/09/04 08:52:34;;;;;;;8.30;3.28;;;;;;;;;;5095387;28;20020;-79
2022/09/04 08:55:26;;;;;;;14.80;3.53;;;;;;;;;;5095196;28;20035;-78
2022/09/04 08:58:10;;;;;;;7.40;3.60;;;;;;;;;;5095301;28;20475;-78
2022/09/04 09:01:06;;;;;;;9.38;4.07;;;;;;;;;;5113448;28;20031;-78
2022/09/04 09:03:55;;;;;;;6.50;3.90;;;;;;;;;;5115815;28;20030;-79
2022/09/04 09:07:00;;;;;;;10.15;4.10;;;;;;;;;;5097768;28;20023;-78
2022/09/04 09:09:31;;;;;;;;;;;;;;;;;;5081447;28;20028;-78
2022/09/04 09:12:20;;;;;;;9.30;3.47;;;;;;;;;;5078633;28;19919;-78
2022/09/04 09:15:04;;;;;;;6.75;3.50;;;;;;;;;;5095301;28;20570;-78
2022/09/04 09:17:58;;;;;;;8.55;3.90;;;;;;;;;;5113857;28;20035;-78
2022/09/04 09:20:53;;;;;;;10.30;3.85;;;;;;;;;;5077789;28;20027;-78
2022/09/04 09:23:40;;;;;;;7.80;3.40;;;;;;;;;;5077988;28;20104;-78
2022/09/04 09:26:29;;;;;;;9.43;4.03;;;;;;;;;;5071785;28;20038;-78
2022/09/04 09:29:25;;;;;;;10.80;3.42;;;;;;;;;;5096330;28;20062;-78
2022/09/04 09:32:28;;;;;;;10.30;3.47;;;;;;;;;;5113669;28;20106;-79
2022/09/04 09:35:21;;;;;;;6.97;3.17;;;;;;;;;;5113116;28;20022;-79
2022/09/04 09:38:27;;;;;;;11.13;3.58;;;;;;;;;;5094834;28;20118;-78
2022/09/04 09:41:11;;;;;;;8.23;3.20;;;;;;;;;;5078232;28;20023;-79
2022/09/04 09:44:13;;;;;;;6.10;3.38;;;;;;;;;;5113567;28;20039;-79
2022/09/04 09:47:08;;;;;;;5.68;3.17;;;;;;;;;;5094924;28;20491;-79
2022/09/04 09:50:04;;;;;;;7.38;2.80;;;;;;;;;;5095251;28;20057;-78
2022/09/04 09:52:54;;;;;;;6.47;2.90;;;;;;;;;;5096687;28;20016;-78
2022/09/04 09:55:32;;;;;;;7.22;2.67;;;;;;;;;;5097321;28;20011;-79
2022/09/04 09:58:35;;;;;;;2.65;2.30;;;;;;;;;;5095896;28;20045;-79
2022/09/04 10:01:22;;;;;;;4.22;2.30;;;;;;;;;;5114016;28;20437;-80
2022/09/04 10:04:22;;;;;;;6.50;2.80;;;;;;;;;;5113524;28;20384;-78
2022/09/04 10:06:54;;;;;;;12.95;4.28;;;;;;;;;;5113017;28;20103;-78
2022/09/04 10:09:37;;;;;;;9.02;3.63;;;;;;;;;;5094652;28;20072;-78
2022/09/04 10:12:40;;;;;;;9.52;3.80;;;;;;;;;;5113287;28;20027;-78
2022/09/04 10:15:21;;;;;;;9.07;3.40;;;;;;;;;;5095535;28;20027;-78
2022/09/04 10:18:10;;;;;;;12.40;3.33;;;;;;;;;;5077312;28;20124;-78
2022/09/04 10:21:14;;;;;;;6.97;3.28;;;;;;;;;;5112995;28;20096;-78
2022/09/04 10:24:09;;;;;;;8.05;3.60;;;;;;;;;;5112562;28;20032;-78
2022/09/04 10:26:53;;;;;;;;;;;;;;;;;;5095397;28;20028;-79
2022/09/04 10:29:53;;;;;;;5.72;2.83;;;;;;;;;;5114432;28;19908;-79
2022/09/04 10:32:24;;;;;;;6.22;3.25;;;;;;;;;;5079235;28;20047;-79
2022/09/04 10:35:17;;;;;;;3.70;2.60;;;;;;;;;;5113691;28;20102;-78
2022/09/04 10:38:01;;;;;;;4.15;2.75;;;;;;;;;;5113924;28;20471;-79
2022/09/04 10:41:14;;;;;;;4.15;2.42;;;;;;;;;;5114520;28;20474;-79
2022/09/04 10:44:01;;;;;;;5.10;2.38;;;;;;;;;;5114089;28;20420;-78
2022/09/04 10:47:04;;;;;;;3.58;2.60;;;;;;;;;;5113216;28;20027;-78
2022/09/04 10:49:59;;;;;;;4.22;2.40;;;;;;;;;;5116977;28;20463;-78
2022/09/04 10:52:29;;;;;;;3.65;2.65;;;;;;;;;;5118002;28;20027;-78
2022/09/04 10:54:57;;;;;;;3.50;2.47;;;;;;;;;;5116535;28;20333;-78
2022/09/04 10:57:23;;;;;;;3.67;2.08;;;;;;;;;;5115729;28;20103;-80
2022/09/04 11:00:15;;;;;;;2.65;2.40;;;;;;;;;;5116317;28;20110;-79
2022/09/04 11:02:56;;;;;;;3.50;2.03;;;;;;;;;;5082353;28;20046;-78
2022/09/04 11:05:49;;;;;;;3.10;1.98;;;;;;;;;;5117677;28;20096;-78
2022/09/04 11:08:26;;;;;;;2.58;1.98;;;;;;;;;;5116761;28;20460;-78
2022/09/04 11:11:22;;;;;;;4.18;1.95;;;;;;;;;;5097958;28;20115;-78
2022/09/04 11:13:57;;;;;;;4.13;1.85;;;;;;;;;;5098667;28;20137;-78
2022/09/04 11:16:49;;;;;;;2.85;1.98;;;;;;;;;;5081865;28;20034;-78
2022/09/04 11:19:33;;;;;;;4.30;2.00;;;;;;;;;;5100724;28;20047;-78
2022/09/04 11:22:37;;;;;;;2.25;1.67;;;;;;;;;;5078584;28;20020;-78
2022/09/04 11:25:53;;;;;;;2.08;1.88;;;;;;;;;;5098718;28;20042;-79
2022/09/04 11:28:45;;;;;;;5.25;1.90;;;;;;;;;;5051387;28;20038;-77
2022/09/04 11:31:45;;;;;;;2.25;1.80;;;;;;;;;;5096657;28;20035;-77
2022/09/04 11:34:31;;;;;;;2.50;1.83;;;;;;;;;;5096128;28;20575;-77
2022/09/04 11:37:18;;;;;;;2.22;1.88;;;;;;;;;;5078270;28;20476;-77
2022/09/04 11:39:43;;;;;;;2.15;1.90;;;;;;;;;;5096950;28;20024;-77
2022/09/04 11:42:12;;;;;;;2.10;1.90;;;;;;;;;;5078421;28;20066;-77
2022/09/04 11:45:16;;;;;;;2.45;1.90;;;;;;;;;;5095699;28;20024;-77
2022/09/04 11:47:51;;;;;;;3.85;2.08;;;;;;;;;;5078637;28;20035;-79
2022/09/04 11:50:44;;;;;;;2.38;1.85;;;;;;;;;;5062953;28;20020;-78
2022/09/04 11:53:27;;;;;;;1.98;1.83;;;;;;;;;;5056936;28;20542;-78
2022/09/04 11:56:19;;;;;;;3.33;2.22;;;;;;;;;;5057801;28;20074;-79
2022/09/04 11:58:44;;;;;;;8.25;3.10;;;;;;;;;;5019021;28;20056;-79
2022/09/04 12:01:25;;;;;;;5.47;2.40;;;;;;;;;;5057022;28;20036;-80
2022/09/04 12:04:09;;;;;;;8.00;3.00;;;;;;;;;;5056871;28;20055;-78
2022/09/04 12:06:36;;;;;;;;;;;;;;;;;;5075070;28;20031;-79
2022/09/04 12:09:36;;;;;;;8.43;3.20;;;;;;;;;;5074043;28;19918;-79
2022/09/04 12:12:39;;;;;;;6.88;3.20;;;;;;;;;;5074048;28;20402;-78
2022/09/04 12:15:11;;;;;;;9.07;3.13;;;;;;;;;;5040555;28;20047;-79
2022/09/04 12:18:13;;;;;;;9.80;3.55;;;;;;;;;;5060336;28;20441;-79
2022/09/04 12:20:56;;;;;;;8.98;3.33;;;;;;;;;;5038668;28;20041;-79
2022/09/04 12:23:52;;;;;;;9.70;3.43;;;;;;;;;;5041104;28;20051;-79
2022/09/04 12:26:29;;;;;;;6.70;3.00;;;;;;;;;;5051611;28;20021;-79
2022/09/04 12:29:19;;;;;;;8.82;3.42;;;;;;;;;;5052578;28;20021;-79
2022/09/04 12:31:54;;;;;;;8.77;3.30;;;;;;;;;;5042824;28;20033;-79
2022/09/04 12:34:28;;;;;;;5.18;2.85;;;;;;;;;;5048035;28;20108;-79
2022/09/04 12:37:27;;;;;;;8.05;3.30;;;;;;;;;;5052037;28;20033;-78
2022/09/04 12:39:55;;;;;;;5.15;2.80;;;;;;;;;;5048211;28;20063;-80
2022/09/04 12:42:51;;;;;;;8.13;2.72;;;;;;;;;;5042812;28;20047;-79
2022/09/04 12:45:25;;;;;;;4.95;2.88;;;;;;;;;;5020439;28;20107;-80
2022/09/04 12:48:10;;;;;;;7.00;3.20;;;;;;;;;;5026424;28;20033;-80
2022/09/04 12:50:46;;;;;;;6.25;2.95;;;;;;;;;;5040042;28;20025;-78
2022/09/04 12:53:19;;;;;;;3.97;2.45;;;;;;;;;;5040192;28;20056;-80
2022/09/04 12:56:10;;;;;;;4.07;2.22;;;;;;;;;;5031797;28;20029;-78
2022/09/04 12:58:51;;;;;;;4.38;2.30;;;;;;;;;;5055388;28;20020;-80
2022/09/04 13:01:31;;;;;;;2.45;1.90;;;;;;;;;;5072457;28;20028;-79
2022/09/04 13:04:18;;;;;;;3.03;2.50;;;;;;;;;;5088244;28;20116;-80
2022/09/04 13:07:02;;;;;;;3.67;2.17;;;;;;;;;;5094242;28;20024;-78
2022/09/04 13:09:30;;;;;;;2.88;2.00;;;;;;;;;;5076990;28;20102;-79
2022/09/04 13:12:02;;;;;;;5.18;2.25;;;;;;;;;;5076123;28;20028;-79
2022/09/04 13:14:47;;;;;;;4.25;2.53;;;;;;;;;;5076579;28;20438;-79
2022/09/04 13:17:12;;;;;;;2.83;1.90;;;;;;;;;;5075917;28;20028;-78
2022/09/04 13:20:01;;;;;;;2.75;2.10;;;;;;;;;;5076896;28;20376;-78
2022/09/04 13:22:30;;;;;;;3.85;2.50;;;;;;;;;;5093805;28;20128;-78
2022/09/04 13:25:04;;;;;;;2.00;1.85;;;;;;;;;;5059264;28;20023;-79
2022/09/04 13:27:56;;;;;;;1.73;1.63;;;;;;;;;;5075164;28;20032;-79
2022/09/04 13:30:24;;;;;;;4.05;2.08;;;;;;;;;;5075938;28;20444;-78
2022/09/04 13:33:11;;;;;;;1.90;1.80;;;;;;;;;;5058657;28;20400;-79
2022/09/04 13:35:58;;;;;;;1.92;1.80;;;;;;;;;;5075009;28;20106;-80
2022/09/04 13:38:50;;;;;;;2.20;2.00;;;;;;;;;;5075161;28;20476;-79
2022/09/04 13:41:32;;;;;;;2.83;2.15;;;;;;;;;;5093240;28;20115;-80
2022/09/04 13:43:59;;;;;;;2.83;2.20;;;;;;;;;;5075424;28;20048;-79
2022/09/04 13:46:55;;;;;;;3.40;1.95;;;;;;;;;;5076673;28;20540;-80
2022/09/04 13:50:07;;;;;;;4.38;1.95;;;;;;;;;;5071018;28;20488;-79
2022/09/04 13:52:40;;;;;;;4.43;1.85;;;;;;;;;;5076562;28;20440;-78
2022/09/04 13:55:22;;;;;;;3.40;1.80;;;;;;;;;;5067200;28;20038;-79
2022/09/04 13:57:57;;;;;;;3.30;2.15;;;;;;;;;;5069939;28;20115;-78
2022/09/04 14:00:24;;;;;;;2.72;2.05;;;;;;;;;;5066448;28;20012;-79
2022/09/04 14:02:56;;;;;;;2.13;1.70;;;;;;;;;;5066817;28;20075;-78
2022/09/04 14:05:24;;;;;;;2.45;2.05;;;;;;;;;;5067932;28;20074;-78
2022/09/04 14:08:16;;;;;;;2.42;1.95;;;;;;;;;;5091886;28;20058;-78
2022/09/04 14:11:10;;;;;;;4.80;1.83;;;;;;;;;;5056813;28;20036;-78
2022/09/04 14:14:12;;;;;;;1.63;1.52;;;;;;;;;;5085851;28;20045;-79
2022/09/04 14:16:38;;;;;;;3.25;2.10;;;;;;;;;;5050663;28;20032;-80
2022/09/04 14:19:11;;;;;;;5.25;1.80;;;;;;;;;;5066284;28;20048;-77
2022/09/04 14:22:04;;;;;;;2.30;1.60;;;;;;;;;;5092751;28;20032;-80
2022/09/04 14:24:56;;;;;;;1.70;1.50;;;;;;;;;;5096940;28;20019;-79
2022/09/04 14:28:02;;;;;;;2.00;1.50;;;;;;;;;;5050715;28;20024;-79
2022/09/04 14:30:30;;;;;;;1.70;1.50;;;;;;;;;;5077002;28;20024;-80
2022/09/04 14:33:21;;;;;;;2.85;1.40;;;;;;;;;;5059399;28;20029;-78
2022/09/04 14:36:55;;;;;;;4.95;1.55;;;;;;;;;;5076918;28;20102;-78
2022/09/04 14:39:46;;;;;;;2.53;2.10;;;;;;;;;;5005356;28;20045;-79
2022/09/04 14:42:34;;;;;;;3.40;1.58;;;;;;;;;;5057538;28;20040;-79
2022/09/04 14:45:30;;;;;;;3.97;1.70;;;;;;;;;;5050589;28;20060;-79
2022/09/04 14:48:03;;;;;;;5.60;1.65;;;;;;;;;;5085288;28;20031;-79
2022/09/04 14:50:30;;;;;;;2.05;1.80;;;;;;;;;;5065005;28;20020;-79
2022/09/04 14:53:02;;;;;;;2.63;2.00;;;;;;;;;;5062324;28;20093;-79
2022/09/04 14:55:36;;;;;;;4.07;1.70;;;;;;;;;;5061911;28;20476;-78
2022/09/04 14:58:18;;;;;;;4.47;2.10;;;;;;;;;;5081300;28;20032;-78
2022/09/04 15:01:02;;;;;;;2.80;1.85;;;;;;;;;;5071298;28;20109;-78
2022/09/04 15:03:29;;;;;;;;;;;;;;;;;;5078802;28;20032;-78
2022/09/04 15:06:00;;;;;;;3.28;1.50;;;;;;;;;;5058404;28;19999;-77
2022/09/04 15:08:33;;;;;;;3.50;1.88;;;;;;;;;;5059151;28;20106;-78
2022/09/04 15:11:04;;;;;;;4.05;2.20;;;;;;;;;;5074865;28;20528;-79
2022/09/04 15:13:35;;;;;;;2.10;1.58;;;;;;;;;;5058444;28;20035;-77
2022/09/04 15:16:21;;;;;;;2.42;1.95;;;;;;;;;;5077261;28;20038;-78
2022/09/04 15:19:15;;;;;;;1.80;1.70;;;;;;;;;;5091537;28;20051;-79
2022/09/04 15:21:55;;;;;;;1.77;1.50;;;;;;;;;;5075197;28;20079;-78
2022/09/04 15:24:27;;;;;;;1.70;1.60;;;;;;;;;;5072909;28;20031;-77
2022/09/04 15:26:58;;;;;;;2.28;1.70;;;;;;;;;;5096149;28;20024;-77
2022/09/04 15:29:44;;;;;;;1.60;1.50;;;;;;;;;;5077522;28;20040;-80
2022/09/04 15:32:10;;;;;;;6.82;1.65;;;;;;;;;;5078064;28;20379;-79
2022/09/04 15:34:35;;;;;;;3.90;1.70;;;;;;;;;;5076753;28;20111;-79
2022/09/04 15:37:14;;;;;;;1.80;1.70;;;;;;;;;;5060879;28;20036;-78
2022/09/04 15:39:47;;;;;;;1.67;1.58;;;;;;;;;;5092444;28;20053;-81
2022/09/04 15:42:31;;;;;;;2.60;1.77;;;;;;;;;;5097847;28;20035;-80
2022/09/04 15:44:58;;;;;;;1.67;1.58;;;;;;;;;;5083195;28;20042;-79
2022/09/04 15:47:53;;;;;;;4.05;1.83;;;;;;;;;;5097830;28;20115;-80
2022/09/04 15:50:21;;;;;;;4.55;1.92;;;;;;;;;;5111529;28;20036;-80
2022/09/04 15:52:59;;;;;;;2.60;1.80;;;;;;;;;;5115377;28;20036;-79
2022/09/04 15:55:28;;;;;;;5.20;1.75;;;;;;;;;;5079911;28;20027;-80
2022/09/04 15:58:18;;;;;;;6.38;2.42;;;;;;;;;;5096922;28;20023;-82
2022/09/04 16:01:05;;;;;;;9.15;2.47;;;;;;;;;;5097128;28;20152;-79
2022/09/04 16:03:43;;;;;;;6.63;2.95;;;;;;;;;;5115622;28;20058;-80
2022/09/04 16:06:18;;;;;;;10.85;2.90;;;;;;;;;;5097566;28;20087;-80
2022/09/04 16:08:48;;;;;;;3.25;2.25;;;;;;;;;;5116475;28;20024;-82
2022/09/04 16:11:21;;;;;;;3.45;2.20;;;;;;;;;;5097861;28;20427;-79
2022/09/04 16:13:54;;;;;;;5.25;2.10;;;;;;;;;;5116368;28;20028;-77
2022/09/04 16:16:44;;;;;;;3.60;2.07;;;;;;;;;;5081887;28;20024;-82
2022/09/04 16:19:27;;;;;;;5.78;2.35;;;;;;;;;;5100131;28;20292;-79
2022/09/04 16:22:30;;;;;;;4.63;2.00;;;;;;;;;;5117685;28;20019;-80
2022/09/04 16:25:20;;;;;;;8.30;2.40;;;;;;;;;;5053975;28;20102;-80